Time,TemperatureF,DewpointF,PressureIn,WindDirection,WindDirectionDegrees,WindSpeedMPH,WindSpeedGustMPH,Humidity,HourlyPrecipIn,Conditions,Clouds,dailyrainin,SoftwareType,DateUTC
2013-05-06 00:03:00,57.1,43.0,30.03,NE,56,0.0,-999.0,60,-99.99,,,0.00,weatherlink.com 1.10,2013-05-06 04:03:00,
2013-05-06 00:18:00,57.2,42.0,30.03,NE,37,0.0,-999.0,58,-99.99,,,0.00,weatherlink.com 1.10,2013-05-06 04:18:00,
2013-05-06 00:33:00,58.9,42.0,30.03,ENE,71,1.0,-999.0,53,-99.99,,,0.00,weatherlink.com 1.10,2013-05-06 04:33:00,
2013-05-06 00:48:00,60.0,41.0,30.03,East,80,0.0,-999.0,50,-99.99,,,0.00,weatherlink.com 1.10,2013-05-06 04:48:00,
2013-05-06 01:03:00,60.1,41.0,30.02,East,79,1.0,-999.0,49,-99.99,,,0.00,weatherlink.com 1.10,2013-05-06 05:03:00,
2013-05-06 01:18:00,59.8,41.0,30.02,ENE,63,1.0,-999.0,51,-99.99,,,0.00,weatherlink.com 1.10,2013-05-06 05:18:00,
2013-05-06 01:33:00,59.4,42.0,30.02,ENE,59,0.0,-999.0,52,-99.99,,,0.00,weatherlink.com 1.10,2013-05-06 05:33:00,
2013-05-06 01:48:00,58.8,41.0,30.02,ENE,76,0.0,-999.0,53,-99.99,,,0.00,weatherlink.com 1.10,2013-05-06 05:48:00,
2013-05-06 02:03:00,58.1,42.0,30.02,ENE,58,0.0,-999.0,55,-99.99,,,0.00,weatherlink.com 1.10,2013-05-06 06:03:00,
2013-05-06 02:18:00,57.3,42.0,30.02,ENE,63,0.0,-999.0,57,-99.99,,,0.00,weatherlink.com 1.10,2013-05-06 06:18:00,
2013-05-06 02:33:00,56.8,42.0,30.02,NE,54,0.0,-999.0,58,-99.99,,,0.00,weatherlink.com 1.10,2013-05-06 06:33:00,
2013-05-06 02:48:00,56.1,42.0,30.02,ENE,63,1.0,-999.0,60,-99.99,,,0.00,weatherlink.com 1.10,2013-05-06 06:48:00,
2013-05-06 03:03:00,55.4,42.0,30.02,ESE,113,0.0,-999.0,62,-99.99,,,0.00,weatherlink.com 1.10,2013-05-06 07:03:00,
2013-05-06 03:18:00,54.9,42.0,30.01,ENE,78,0.0,-999.0,63,-99.99,,,0.00,weatherlink.com 1.10,2013-05-06 07:18:00,
2013-05-06 03:33:00,54.1,42.0,30.01,NE,54,0.0,-999.0,63,-99.99,,,0.00,weatherlink.com 1.10,2013-05-06 07:33:00,
2013-05-06 03:48:00,53.5,41.0,30.01,NE,49,0.0,-999.0,64,-99.99,,,0.00,weatherlink.com 1.10,2013-05-06 07:48:00,
2013-05-06 04:03:00,53.1,42.0,30.01,NE,41,0.0,-999.0,65,-99.99,,,0.00,weatherlink.com 1.10,2013-05-06 08:03:00,
2013-05-06 04:18:00,52.9,41.0,30.00,NE,49,0.0,-999.0,65,-99.99,,,0.00,weatherlink.com 1.10,2013-05-06 08:18:00,
2013-05-06 04:33:00,52.5,41.0,30.00,NE,46,0.0,-999.0,65,-99.99,,,0.00,weatherlink.com 1.10,2013-05-06 08:33:00,
2013-05-06 04:48:00,52.1,41.0,30.00,NE,46,0.0,-999.0,66,-99.99,,,0.00,weatherlink.com 1.10,2013-05-06 08:48:00,
2013-05-06 05:03:00,51.8,41.0,30.01,NE,46,0.0,-999.0,66,-99.99,,,0.00,weatherlink.com 1.10,2013-05-06 09:03:00,
2013-05-06 05:18:00,51.6,41.0,30.01,NE,45,0.0,-999.0,67,-99.99,,,0.00,weatherlink.com 1.10,2013-05-06 09:18:00,
2013-05-06 05:33:00,51.5,41.0,30.01,NE,45,0.0,-999.0,67,-99.99,,,0.00,weatherlink.com 1.10,2013-05-06 09:33:00,
2013-05-06 05:48:00,51.1,41.0,30.01,NE,45,0.0,-999.0,68,-99.99,,,0.00,weatherlink.com 1.10,2013-05-06 09:48:00,
2013-05-06 06:03:00,50.9,41.0,30.02,NE,43,0.0,-999.0,68,-99.99,,,0.00,weatherlink.com 1.10,2013-05-06 10:03:00,
2013-05-06 06:18:00,50.7,40.0,30.02,NE,43,0.0,-999.0,68,-99.99,,,0.00,weatherlink.com 1.10,2013-05-06 10:18:00,
2013-05-06 06:33:00,50.7,41.0,30.02,NE,43,0.0,-999.0,69,-99.99,,,0.00,weatherlink.com 1.10,2013-05-06 10:33:00,
2013-05-06 06:48:00,51.0,41.0,30.03,NE,44,0.0,-999.0,68,-99.99,,,0.00,weatherlink.com 1.10,2013-05-06 10:48:00,
2013-05-06 07:03:00,51.8,41.0,30.03,East,84,0.0,-999.0,66,-99.99,,,0.00,weatherlink.com 1.10,2013-05-06 11:03:00,
2013-05-06 07:18:00,52.4,41.0,30.04,East,89,0.0,-999.0,65,-99.99,,,0.00,weatherlink.com 1.10,2013-05-06 11:18:00,
2013-05-06 07:33:00,52.9,41.0,30.04,ENE,64,0.0,-999.0,64,-99.99,,,0.00,weatherlink.com 1.10,2013-05-06 11:33:00,
2013-05-06 07:48:00,53.4,42.0,30.05,East,89,0.0,-999.0,65,-99.99,,,0.00,weatherlink.com 1.10,2013-05-06 11:48:00,
2013-05-06 08:03:00,53.6,42.0,30.05,East,91,0.0,-999.0,64,-99.99,,,0.00,weatherlink.com 1.10,2013-05-06 12:03:00,
2013-05-06 08:18:00,54.0,42.0,30.05,East,79,0.0,-999.0,64,-99.99,,,0.00,weatherlink.com 1.10,2013-05-06 12:18:00,
2013-05-06 08:33:00,54.5,42.0,30.06,East,95,0.0,-999.0,64,-99.99,,,0.00,weatherlink.com 1.10,2013-05-06 12:33:00,
2013-05-06 08:48:00,55.0,42.0,30.06,East,93,1.0,-999.0,63,-99.99,,,0.00,weatherlink.com 1.10,2013-05-06 12:48:00,
2013-05-06 09:03:00,55.9,43.0,30.06,NE,43,1.0,-999.0,62,-99.99,,,0.00,weatherlink.com 1.10,2013-05-06 13:03:00,
2013-05-06 09:18:00,56.6,43.0,30.06,ESE,123,1.0,-999.0,61,-99.99,,,0.00,weatherlink.com 1.10,2013-05-06 13:18:00,
2013-05-06 09:33:00,58.1,44.0,30.06,NE,49,3.0,-999.0,60,-99.99,,,0.00,weatherlink.com 1.10,2013-05-06 13:33:00,
2013-05-06 09:48:00,58.7,43.0,30.06,ENE,74,2.0,-999.0,57,-99.99,,,0.00,weatherlink.com 1.10,2013-05-06 13:48:00,
2013-05-06 10:03:00,59.4,44.0,30.07,ESE,110,0.0,-999.0,58,-99.99,,,0.00,weatherlink.com 1.10,2013-05-06 14:03:00,
2013-05-06 10:18:00,60.9,45.0,30.07,ENE,59,0.0,-999.0,57,-99.99,,,0.00,weatherlink.com 1.10,2013-05-06 14:18:00,
2013-05-06 10:33:00,62.5,44.0,30.07,SE,129,0.0,-999.0,52,-99.99,,,0.00,weatherlink.com 1.10,2013-05-06 14:33:00,
2013-05-06 10:48:00,63.2,45.0,30.06,NE,43,1.0,-999.0,52,-99.99,,,0.00,weatherlink.com 1.10,2013-05-06 14:48:00,
2013-05-06 11:03:00,64.4,45.0,30.06,ENE,68,0.0,-999.0,50,-99.99,,,0.00,weatherlink.com 1.10,2013-05-06 15:03:00,
2013-05-06 11:18:00,65.5,45.0,30.05,NNE,24,0.0,-999.0,47,-99.99,,,0.00,weatherlink.com 1.10,2013-05-06 15:18:00,
2013-05-06 11:33:00,65.6,45.0,30.06,ESE,103,1.0,-999.0,47,-99.99,,,0.00,weatherlink.com 1.10,2013-05-06 15:33:00,
2013-05-06 11:48:00,66.6,44.0,30.06,ENE,72,4.0,-999.0,45,-99.99,,,0.00,weatherlink.com 1.10,2013-05-06 15:48:00,
2013-05-06 12:03:00,66.5,44.0,30.05,ENE,57,2.0,-999.0,45,-99.99,,,0.00,weatherlink.com 1.10,2013-05-06 16:03:00,
2013-05-06 12:18:00,67.8,46.0,30.05,ESE,114,3.0,-999.0,45,-99.99,,,0.00,weatherlink.com 1.10,2013-05-06 16:18:00,
2013-05-06 12:33:00,68.2,46.0,30.05,ENE,67,3.0,-999.0,45,-99.99,,,0.00,weatherlink.com 1.10,2013-05-06 16:33:00,
2013-05-06 12:48:00,68.6,44.0,30.04,ESE,117,3.0,-999.0,42,-99.99,,,0.00,weatherlink.com 1.10,2013-05-06 16:48:00,
2013-05-06 13:03:00,69.6,45.0,30.03,ENE,76,2.0,-999.0,42,-99.99,,,0.00,weatherlink.com 1.10,2013-05-06 17:03:00,
2013-05-06 13:18:00,70.1,46.0,30.03,ENE,63,3.0,-999.0,42,-99.99,,,0.00,weatherlink.com 1.10,2013-05-06 17:18:00,
2013-05-06 13:33:00,70.4,46.0,30.03,NE,42,2.0,-999.0,42,-99.99,,,0.00,weatherlink.com 1.10,2013-05-06 17:33:00,
2013-05-06 13:48:00,70.6,46.0,30.03,NE,40,3.0,-999.0,42,-99.99,,,0.00,weatherlink.com 1.10,2013-05-06 17:48:00,
2013-05-06 14:03:00,69.9,47.0,30.03,East,96,3.0,-999.0,44,-99.99,,,0.00,weatherlink.com 1.10,2013-05-06 18:03:00,
2013-05-06 14:18:00,70.5,48.0,30.02,NNE,29,2.0,-999.0,45,-99.99,,,0.00,weatherlink.com 1.10,2013-05-06 18:18:00,
2013-05-06 14:33:00,70.9,48.0,30.02,East,84,0.0,-999.0,44,-99.99,,,0.00,weatherlink.com 1.10,2013-05-06 18:33:00,
2013-05-06 14:48:00,70.5,48.0,30.02,ESE,120,3.0,-999.0,45,-99.99,,,0.00,weatherlink.com 1.10,2013-05-06 18:48:00,
2013-05-06 15:03:00,71.1,48.0,30.02,East,98,2.0,-999.0,44,-99.99,,,0.00,weatherlink.com 1.10,2013-05-06 19:03:00,
2013-05-06 15:18:00,72.0,49.0,30.01,SE,134,2.0,-999.0,44,-99.99,,,0.00,weatherlink.com 1.10,2013-05-06 19:18:00,
2013-05-06 15:33:00,72.9,50.0,30.01,ESE,106,2.0,-999.0,45,-99.99,,,0.00,weatherlink.com 1.10,2013-05-06 19:33:00,
2013-05-06 15:48:00,71.7,49.0,30.01,East,91,4.0,-999.0,45,-99.99,,,0.00,weatherlink.com 1.10,2013-05-06 19:48:00,
2013-05-06 16:03:00,71.6,50.0,30.00,East,96,1.0,-999.0,46,-99.99,,,0.00,weatherlink.com 1.10,2013-05-06 20:03:00,
2013-05-06 16:18:00,70.9,50.0,30.00,ENE,76,3.0,-999.0,47,-99.99,,,0.00,weatherlink.com 1.10,2013-05-06 20:18:00,
2013-05-06 16:33:00,70.7,49.0,30.00,ESE,113,3.0,-999.0,47,-99.99,,,0.00,weatherlink.com 1.10,2013-05-06 20:33:00,
2013-05-06 16:48:00,70.3,50.0,29.99,ESE,102,3.0,-999.0,48,-99.99,,,0.00,weatherlink.com 1.10,2013-05-06 20:48:00,
2013-05-06 17:03:00,70.2,49.0,29.99,SE,131,2.0,-999.0,48,-99.99,,,0.00,weatherlink.com 1.10,2013-05-06 21:03:00,
2013-05-06 17:18:00,70.2,49.0,29.99,East,84,2.0,-999.0,47,-99.99,,,0.00,weatherlink.com 1.10,2013-05-06 21:18:00,
2013-05-06 17:33:00,70.2,49.0,29.99,ESE,109,3.0,-999.0,47,-99.99,,,0.00,weatherlink.com 1.10,2013-05-06 21:33:00,
2013-05-06 17:48:00,69.0,49.0,29.99,ENE,76,1.0,-999.0,49,-99.99,,,0.00,weatherlink.com 1.10,2013-05-06 21:48:00,
2013-05-06 18:03:00,68.6,49.0,29.99,ENE,67,2.0,-999.0,50,-99.99,,,0.00,weatherlink.com 1.10,2013-05-06 22:03:00,
2013-05-06 18:18:00,68.5,49.0,29.99,ENE,72,3.0,-999.0,50,-99.99,,,0.00,weatherlink.com 1.10,2013-05-06 22:18:00,
2013-05-06 18:33:00,68.6,49.0,29.99,East,94,2.0,-999.0,49,-99.99,,,0.00,weatherlink.com 1.10,2013-05-06 22:33:00,
2013-05-06 18:48:00,67.9,48.0,29.99,ENE,75,3.0,-999.0,49,-99.99,,,0.00,weatherlink.com 1.10,2013-05-06 22:48:00,
2013-05-06 19:03:00,67.8,48.0,29.99,East,82,1.0,-999.0,49,-99.99,,,0.00,weatherlink.com 1.10,2013-05-06 23:03:00,
2013-05-06 19:18:00,67.5,48.0,29.99,NE,53,2.0,-999.0,50,-99.99,,,0.00,weatherlink.com 1.10,2013-05-06 23:18:00,
2013-05-06 19:33:00,66.9,48.0,30.00,NE,37,2.0,-999.0,51,-99.99,,,0.00,weatherlink.com 1.10,2013-05-06 23:33:00,
2013-05-06 19:48:00,66.3,48.0,30.00,East,89,2.0,-999.0,52,-99.99,,,0.00,weatherlink.com 1.10,2013-05-06 23:48:00,
2013-05-06 20:03:00,65.8,49.0,30.00,East,95,0.0,-999.0,54,-99.99,,,0.00,weatherlink.com 1.10,2013-05-07 00:03:00,
2013-05-06 20:18:00,65.1,48.0,30.00,ESE,105,0.0,-999.0,55,-99.99,,,0.00,weatherlink.com 1.10,2013-05-07 00:18:00,
2013-05-06 20:33:00,64.4,47.0,30.01,ESE,109,0.0,-999.0,54,-99.99,,,0.00,weatherlink.com 1.10,2013-05-07 00:33:00,
2013-05-06 20:48:00,63.9,48.0,30.01,ESE,103,0.0,-999.0,56,-99.99,,,0.00,weatherlink.com 1.10,2013-05-07 00:48:00,
2013-05-06 21:03:00,63.5,47.0,30.02,ESE,109,0.0,-999.0,56,-99.99,,,0.00,weatherlink.com 1.10,2013-05-07 01:03:00,
2013-05-06 21:18:00,62.5,45.0,30.02,ESE,109,0.0,-999.0,54,-99.99,,,0.00,weatherlink.com 1.10,2013-05-07 01:18:00,
2013-05-06 21:33:00,61.6,46.0,30.02,ESE,108,1.0,-999.0,57,-99.99,,,0.00,weatherlink.com 1.10,2013-05-07 01:33:00,
2013-05-06 21:48:00,61.1,46.0,30.02,ESE,113,0.0,-999.0,57,-99.99,,,0.00,weatherlink.com 1.10,2013-05-07 01:48:00,
2013-05-06 22:03:00,60.4,46.0,30.03,ESE,121,0.0,-999.0,59,-99.99,,,0.00,weatherlink.com 1.10,2013-05-07 02:03:00,
2013-05-06 22:18:00,59.8,46.0,30.03,ESE,115,0.0,-999.0,60,-99.99,,,0.00,weatherlink.com 1.10,2013-05-07 02:18:00,
2013-05-06 22:33:00,59.2,46.0,30.03,ESE,120,0.0,-999.0,62,-99.99,,,0.00,weatherlink.com 1.10,2013-05-07 02:33:00,
2013-05-06 22:48:00,58.6,46.0,30.04,ESE,120,0.0,-999.0,63,-99.99,,,0.00,weatherlink.com 1.10,2013-05-07 02:48:00,
2013-05-06 23:03:00,58.3,46.0,30.04,ESE,108,0.0,-999.0,63,-99.99,,,0.00,weatherlink.com 1.10,2013-05-07 03:03:00,
2013-05-06 23:18:00,58.3,45.0,30.04,ESE,107,0.0,-999.0,62,-99.99,,,0.00,weatherlink.com 1.10,2013-05-07 03:18:00,
2013-05-06 23:33:00,58.1,45.0,30.04,ESE,110,0.0,-999.0,61,-99.99,,,0.00,weatherlink.com 1.10,2013-05-07 03:33:00,
2013-05-06 23:48:00,57.7,45.0,30.04,ENE,69,0.0,-999.0,62,-99.99,,,0.00,weatherlink.com 1.10,2013-05-07 03:48:00,